Time;durP1;ratioP1;P1;durP2;ratioP2;P2;SDS_P1;SDS_P2;PMS_P1;PMS_P2;Temp;Humidity;BMP_temperature;BMP_pressure;BME280_temperature;BME280_humidity;BME280_pressure;Samples;Min_cycle;Max_cycle;Signal;HPM_P1;HPM_P2
2021/07/02 00:00:42;;;;;;;1999.90;999.90;;;15.10;99.90;;;;;;5051735;28;20551;-69
2021/07/02 00:03:08;;;;;;;1999.90;999.90;;;15.10;99.90;;;;;;5051900;28;20174;-69
2021/07/02 00:05:34;;;;;;;1999.90;999.90;;;15.10;99.90;;;;;;5051556;28;20651;-69
2021/07/02 00:07:59;;;;;;;1999.90;999.90;;;15.10;99.90;;;;;;5051858;28;20176;-69
2021/07/02 00:10:25;;;;;;;1999.90;999.90;;;15.20;99.90;;;;;;5051663;28;20180;-69
2021/07/02 00:12:51;;;;;;;1999.90;999.90;;;15.10;99.90;;;;;;5051799;28;20168;-69
2021/07/02 00:15:17;;;;;;;1999.90;999.90;;;15.10;99.90;;;;;;5051467;28;20169;-69
2021/07/02 00:17:42;;;;;;;1999.90;999.90;;;15.10;99.90;;;;;;5051656;28;20452;-69
2021/07/02 00:20:09;;;;;;;1999.90;999.90;;;15.10;99.90;;;;;;5051665;28;20172;-69
2021/07/02 00:22:34;;;;;;;1999.90;999.90;;;15.10;99.90;;;;;;5051602;28;20610;-69
2021/07/02 00:25:02;;;;;;;1999.90;999.90;;;15.10;99.90;;;;;;5051318;28;20483;-69
2021/07/02 00:27:28;;;;;;;1999.90;999.90;;;15.10;99.90;;;;;;5051530;28;20229;-69
2021/07/02 00:29:54;;;;;;;1999.90;999.90;;;15.10;99.90;;;;;;5051557;28;20408;-69
2021/07/02 00:32:19;;;;;;;1999.90;999.90;;;15.10;99.90;;;;;;5051503;28;20191;-69
2021/07/02 00:34:45;;;;;;;1999.90;999.90;;;15.10;99.90;;;;;;5051313;28;20175;-69
2021/07/02 00:37:10;;;;;;;1999.90;999.90;;;15.10;99.90;;;;;;5050131;28;20184;-69
2021/07/02 00:39:36;;;;;;;1999.90;999.90;;;15.00;99.90;;;;;;5051526;28;20176;-69
2021/07/02 00:42:02;;;;;;;1999.90;999.90;;;15.00;99.90;;;;;;5051480;28;20271;-69
2021/07/02 00:44:44;;;;;;;1999.90;999.90;;;14.90;99.90;;;;;;5051125;28;20751;-69
2021/07/02 00:47:11;;;;;;;1999.90;999.90;;;15.00;99.90;;;;;;5053560;28;20497;-69
2021/07/02 00:49:37;;;;;;;1999.90;999.90;;;15.00;99.90;;;;;;5053881;28;20420;-69
2021/07/02 00:52:11;;;;;;;1999.90;999.90;;;15.00;99.90;;;;;;5055007;28;20450;-69
2021/07/02 00:54:38;;;;;;;1999.90;999.90;;;15.00;99.90;;;;;;5054844;28;20415;-69
2021/07/02 00:57:06;;;;;;;1999.90;999.90;;;15.00;99.90;;;;;;5055070;28;20406;-69
2021/07/02 00:59:32;;;;;;;1999.90;999.90;;;15.00;99.90;;;;;;5054980;28;20399;-69
2021/07/02 01:01:58;;;;;;;1999.90;999.90;;;14.90;99.90;;;;;;5054925;28;20431;-69
2021/07/02 01:04:24;;;;;;;1999.90;999.90;;;14.90;99.90;;;;;;5054613;28;20398;-69
2021/07/02 01:06:53;;;;;;;1999.90;999.90;;;14.90;99.90;;;;;;5054939;28;20396;-69
2021/07/02 01:09:23;;;;;;;1999.90;999.90;;;14.90;99.90;;;;;;5054806;28;20181;-69
2021/07/02 01:11:49;;;;;;;1999.90;999.90;;;14.80;99.90;;;;;;5054781;28;20433;-69
2021/07/02 01:14:15;;;;;;;1999.90;999.90;;;14.80;99.90;;;;;;5054434;28;20504;-69
2021/07/02 01:16:41;;;;;;;1999.90;999.90;;;14.80;99.90;;;;;;5054669;28;20445;-69
2021/07/02 01:19:06;;;;;;;1999.90;999.90;;;14.80;99.90;;;;;;5054506;28;20717;-69
2021/07/02 01:21:33;;;;;;;1999.90;999.90;;;14.80;99.90;;;;;;5054560;28;20199;-69
2021/07/02 01:23:58;;;;;;;1999.90;999.90;;;14.80;99.90;;;;;;5054301;28;20168;-69
2021/07/02 01:26:25;;;;;;;1999.90;999.90;;;14.90;99.90;;;;;;5054535;28;20410;-69
2021/07/02 01:28:51;;;;;;;1999.90;999.90;;;14.90;99.90;;;;;;5054467;28;20587;-69
2021/07/02 01:31:17;;;;;;;1999.90;999.90;;;14.80;99.90;;;;;;5054249;28;20423;-69
2021/07/02 01:33:43;;;;;;;1999.90;999.90;;;14.80;99.90;;;;;;5054480;28;20415;-69
2021/07/02 01:36:16;;;;;;;1999.90;999.90;;;14.80;99.90;;;;;;5054319;28;20907;-69
2021/07/02 01:38:42;;;;;;;1999.90;999.90;;;14.80;99.90;;;;;;5054242;28;20453;-69
2021/07/02 01:41:07;;;;;;;1999.90;999.90;;;14.70;99.90;;;;;;5054197;28;20422;-69
2021/07/02 01:43:33;;;;;;;1999.90;999.90;;;14.70;99.90;;;;;;5054156;28;20172;-69
2021/07/02 01:45:59;;;;;;;1999.90;999.90;;;14.60;99.90;;;;;;5053926;28;20184;-69
2021/07/02 01:48:24;;;;;;;1999.90;999.90;;;14.60;99.90;;;;;;5054161;28;20167;-69
2021/07/02 01:50:50;;;;;;;1999.90;999.90;;;14.60;99.90;;;;;;5054154;28;20274;-69
2021/07/02 01:53:16;;;;;;;1999.90;999.90;;;14.60;99.90;;;;;;5053980;28;20179;-69
2021/07/02 01:55:42;;;;;;;1999.90;999.90;;;14.60;99.90;;;;;;5053650;28;20226;-69
2021/07/02 01:58:07;;;;;;;1999.90;999.90;;;14.60;99.90;;;;;;5053511;28;20733;-69
2021/07/02 02:00:33;;;;;;;1999.90;999.90;;;14.60;99.90;;;;;;5053696;28;20410;-69
2021/07/02 02:02:59;;;;;;;1999.90;999.90;;;14.50;99.90;;;;;;5054093;28;20695;-69
2021/07/02 02:05:24;;;;;;;1999.90;999.90;;;14.50;99.90;;;;;;5053493;28;20720;-69
2021/07/02 02:07:50;;;;;;;1999.90;999.90;;;14.50;99.90;;;;;;5053723;28;20177;-69
2021/07/02 02:10:16;;;;;;;1999.90;999.90;;;14.40;99.90;;;;;;5053769;28;20179;-69
2021/07/02 02:12:41;;;;;;;1999.90;999.90;;;14.40;99.90;;;;;;5053598;28;20826;-69
2021/07/02 02:15:07;;;;;;;1999.90;999.90;;;14.40;99.90;;;;;;5053379;28;20254;-69
2021/07/02 02:17:34;;;;;;;1999.90;999.90;;;14.30;99.90;;;;;;5053736;28;20207;-69
2021/07/02 02:20:00;;;;;;;1999.90;999.90;;;14.30;99.90;;;;;;5053529;28;20406;-69
2021/07/02 02:22:26;;;;;;;1999.90;999.90;;;14.20;99.90;;;;;;5053396;28;20432;-69
2021/07/02 02:24:51;;;;;;;1999.90;999.90;;;14.20;99.90;;;;;;5053138;28;20938;-69
2021/07/02 02:27:17;;;;;;;1999.90;999.90;;;14.10;99.90;;;;;;5053305;28;20167;-69
2021/07/02 02:29:43;;;;;;;1999.90;999.90;;;14.00;99.90;;;;;;5053296;28;20172;-69
2021/07/02 02:32:08;;;;;;;1999.90;999.90;;;14.00;99.90;;;;;;5053194;28;20223;-69
2021/07/02 02:34:35;;;;;;;1999.90;999.90;;;13.90;99.90;;;;;;5052975;28;20230;-69
2021/07/02 02:37:01;;;;;;;1999.90;999.90;;;13.90;99.90;;;;;;5053338;28;20646;-69
2021/07/02 02:39:26;;;;;;;1999.90;999.90;;;13.80;99.90;;;;;;5053063;28;20465;-69
2021/07/02 02:41:52;;;;;;;1999.90;999.90;;;13.80;99.90;;;;;;5053026;28;20454;-69
2021/07/02 02:44:17;;;;;;;1999.90;999.90;;;13.80;99.90;;;;;;5052715;28;20167;-69
2021/07/02 02:46:44;;;;;;;1999.90;999.90;;;13.80;99.90;;;;;;5053073;28;20649;-69
2021/07/02 02:49:09;;;;;;;1999.90;999.90;;;13.70;99.90;;;;;;5053045;28;20633;-69
2021/07/02 02:51:35;;;;;;;1999.90;999.90;;;13.70;99.90;;;;;;5052681;28;20481;-69
2021/07/02 02:54:00;;;;;;;1999.90;999.90;;;13.60;99.90;;;;;;5052604;28;20226;-69
2021/07/02 02:56:26;;;;;;;1999.90;999.90;;;13.50;99.90;;;;;;5052800;28;20171;-69
2021/07/02 02:58:51;;;;;;;1999.90;999.90;;;13.50;99.90;;;;;;5051340;28;20198;-69
2021/07/02 03:01:17;;;;;;;1999.90;999.90;;;13.40;99.90;;;;;;5052668;28;20199;-69
2021/07/02 03:03:43;;;;;;;1999.90;999.90;;;13.30;99.90;;;;;;5052586;28;20195;-69
2021/07/02 03:06:09;;;;;;;1999.90;999.90;;;13.20;99.90;;;;;;5052667;28;20171;-69
2021/07/02 03:08:35;;;;;;;1999.90;999.90;;;13.20;99.90;;;;;;5052225;28;20174;-69
2021/07/02 03:11:00;;;;;;;1999.90;999.90;;;13.10;99.90;;;;;;5052199;28;20428;-69
2021/07/02 03:13:26;;;;;;;1999.90;999.90;;;13.00;99.90;;;;;;5052425;28;20496;-69
2021/07/02 03:15:52;;;;;;;1999.90;999.90;;;13.00;99.90;;;;;;5052216;28;20584;-69
2021/07/02 03:18:17;;;;;;;1999.90;999.90;;;13.00;99.90;;;;;;5052372;28;20276;-69
2021/07/02 03:20:44;;;;;;;1999.90;999.90;;;13.00;99.90;;;;;;5052325;28;20275;-69
2021/07/02 03:23:10;;;;;;;1999.90;999.90;;;13.00;99.90;;;;;;5052381;28;20171;-69
2021/07/02 03:25:36;;;;;;;1999.90;999.90;;;13.00;99.90;;;;;;5051901;28;20891;-69
2021/07/02 03:28:02;;;;;;;1999.90;999.90;;;13.00;99.90;;;;;;5052226;28;20413;-69
2021/07/02 03:30:28;;;;;;;1999.90;999.90;;;12.90;99.90;;;;;;5052106;28;20172;-69
2021/07/02 03:32:53;;;;;;;1999.90;999.90;;;12.90;99.90;;;;;;5052201;28;20412;-69
2021/07/02 03:35:19;;;;;;;1999.90;999.90;;;12.90;99.90;;;;;;5051910;28;20199;-69
2021/07/02 03:37:45;;;;;;;1999.90;999.90;;;12.90;99.90;;;;;;5052078;28;20234;-68
2021/07/02 03:40:11;;;;;;;1999.90;999.90;;;12.90;99.90;;;;;;5052163;28;20660;-69
2021/07/02 03:42:37;;;;;;;1999.90;999.90;;;12.90;99.90;;;;;;5051932;28;20188;-69
2021/07/02 03:45:04;;;;;;;1999.90;999.90;;;12.90;99.90;;;;;;5051756;28;20445;-69
2021/07/02 03:47:29;;;;;;;1999.90;999.90;;;12.90;99.90;;;;;;5052018;28;20180;-69
2021/07/02 03:49:55;;;;;;;1999.90;999.90;;;12.90;99.90;;;;;;5051996;28;20409;-69
2021/07/02 03:52:22;;;;;;;1999.90;999.90;;;12.90;99.90;;;;;;5067476;22;20219;-70
2021/07/02 03:54:48;;;;;;;1999.90;999.90;;;12.90;99.90;;;;;;5052120;28;20176;-70
2021/07/02 03:57:18;;;;;;;1999.90;999.90;;;12.90;99.90;;;;;;5051795;28;20398;-70
2021/07/02 03:59:48;;;;;;;1999.90;999.90;;;13.00;99.90;;;;;;5051864;28;20467;-70
2021/07/02 04:02:13;;;;;;;1999.90;999.90;;;12.90;99.90;;;;;;5051805;28;20940;-70
2021/07/02 04:04:40;;;;;;;1999.90;999.90;;;13.00;99.90;;;;;;5051767;28;20408;-70
2021/07/02 04:07:08;;;;;;;1999.90;999.90;;;12.90;99.90;;;;;;5051941;28;20196;-70
2021/07/02 04:09:34;;;;;;;1999.90;999.90;;;13.00;99.90;;;;;;5051759;28;20410;-70
2021/07/02 04:12:00;;;;;;;1999.90;999.90;;;13.00;99.90;;;;;;5051698;28;20487;-70
2021/07/02 04:14:27;;;;;;;1999.90;999.90;;;13.00;99.90;;;;;;5051702;28;20210;-70
2021/07/02 04:16:54;;;;;;;1999.90;999.90;;;13.00;99.90;;;;;;5051835;28;20433;-70
2021/07/02 04:19:19;;;;;;;1999.90;999.90;;;13.00;99.90;;;;;;5051698;28;20450;-70
2021/07/02 04:21:45;;;;;;;1999.90;999.90;;;13.00;99.90;;;;;;5054873;28;20441;-70
2021/07/02 04:24:11;;;;;;;1999.90;999.90;;;13.00;99.90;;;;;;5055623;28;20171;-70
2021/07/02 04:26:37;;;;;;;1999.90;999.90;;;13.10;99.90;;;;;;5055867;28;20402;-70
2021/07/02 04:29:03;;;;;;;1999.90;999.90;;;13.20;99.90;;;;;;5055653;28;20190;-70
2021/07/02 04:31:28;;;;;;;1999.90;999.90;;;13.20;99.90;;;;;;5055826;28;20430;-70
2021/07/02 04:33:54;;;;;;;1999.90;999.90;;;13.30;99.90;;;;;;5055430;28;20179;-70
2021/07/02 04:36:19;;;;;;;1999.90;999.90;;;13.40;99.90;;;;;;5055521;28;20172;-70
2021/07/02 04:38:45;;;;;;;1999.90;999.90;;;13.40;99.90;;;;;;5055329;28;20688;-70
2021/07/02 04:41:11;;;;;;;1999.90;999.90;;;13.60;99.90;;;;;;5055418;28;20258;-70
2021/07/02 04:43:36;;;;;;;1999.90;999.90;;;13.70;99.90;;;;;;5055331;28;20251;-70
2021/07/02 04:46:03;;;;;;;1999.90;999.90;;;13.80;99.90;;;;;;5055257;28;20559;-70
2021/07/02 04:48:28;;;;;;;1999.90;999.90;;;13.80;99.90;;;;;;5055313;28;20176;-71
2021/07/02 04:50:54;;;;;;;1999.90;999.90;;;13.90;99.90;;;;;;5055055;28;20424;-70
2021/07/02 04:53:20;;;;;;;1999.90;999.90;;;14.00;99.90;;;;;;5055198;28;20185;-70
2021/07/02 04:55:47;;;;;;;1999.90;999.90;;;14.20;99.90;;;;;;5054980;28;20180;-69
2021/07/02 04:58:12;;;;;;;1999.90;999.90;;;14.30;99.90;;;;;;5055076;28;20472;-70
2021/07/02 05:00:39;;;;;;;1999.90;999.90;;;14.50;99.90;;;;;;5055017;28;20445;-70
2021/07/02 05:03:05;;;;;;;1999.90;999.90;;;14.70;99.90;;;;;;5055168;28;20191;-70
2021/07/02 05:05:31;;;;;;;1999.90;999.90;;;14.80;99.90;;;;;;5054868;28;20410;-70
2021/07/02 05:07:57;;;;;;;1999.90;999.90;;;14.90;99.90;;;;;;5054843;28;20949;-70
2021/07/02 05:10:24;;;;;;;1999.90;999.90;;;15.10;99.90;;;;;;5054902;28;20410;-70
2021/07/02 05:12:49;;;;;;;1999.90;999.90;;;15.20;99.90;;;;;;5054766;28;20434;-70
2021/07/02 05:15:15;;;;;;;1999.90;999.90;;;15.30;99.90;;;;;;5054730;28;20413;-69
2021/07/02 05:17:41;;;;;;;1999.90;999.90;;;15.40;99.90;;;;;;5054652;28;20320;-70
2021/07/02 05:20:07;;;;;;;1999.90;999.90;;;15.40;99.90;;;;;;5054743;28;20164;-70
2021/07/02 05:22:32;;;;;;;1999.90;999.90;;;15.50;99.90;;;;;;5054795;28;20426;-70
2021/07/02 05:24:58;;;;;;;1999.90;999.90;;;15.50;99.90;;;;;;5054535;28;20413;-70
2021/07/02 05:27:24;;;;;;;1999.90;999.90;;;15.60;99.90;;;;;;5054603;28;20174;-70
2021/07/02 05:29:50;;;;;;;1999.90;999.90;;;15.60;99.90;;;;;;5054511;28;20687;-71
2021/07/02 05:32:15;;;;;;;1999.90;999.90;;;15.70;99.90;;;;;;5053701;28;20194;-70
2021/07/02 05:34:41;;;;;;;1999.90;999.90;;;15.70;99.90;;;;;;5054113;28;20445;-71
2021/07/02 05:37:06;;;;;;;1999.90;999.90;;;15.80;99.90;;;;;;5054360;28;20178;-70
2021/07/02 05:39:32;;;;;;;1999.90;999.90;;;16.00;99.90;;;;;;5054332;28;20256;-71
2021/07/02 05:41:58;;;;;;;1999.90;999.90;;;16.10;99.90;;;;;;5054360;28;20196;-71
2021/07/02 05:44:23;;;;;;;1999.90;999.90;;;16.10;99.90;;;;;;5053979;28;20203;-71
2021/07/02 05:46:49;;;;;;;1999.90;999.90;;;16.20;99.90;;;;;;5054167;28;20168;-71
2021/07/02 05:49:16;;;;;;;1999.90;999.90;;;16.10;99.90;;;;;;5054209;28;20663;-71
2021/07/02 05:51:41;;;;;;;1999.90;999.90;;;16.00;99.90;;;;;;5053768;28;20222;-71
2021/07/02 05:54:08;;;;;;;1999.90;999.90;;;16.00;99.90;;;;;;5053756;28;20417;-71
2021/07/02 05:56:34;;;;;;;1999.90;999.90;;;16.10;99.90;;;;;;5053989;28;20185;-71
2021/07/02 05:59:01;;;;;;;1999.90;999.90;;;16.10;99.90;;;;;;5053844;28;20482;-71
2021/07/02 06:01:28;;;;;;;1999.90;999.90;;;16.10;99.90;;;;;;5053879;28;20220;-71
2021/07/02 06:03:53;;;;;;;1999.90;999.90;;;16.00;99.90;;;;;;5053542;28;20410;-71
2021/07/02 06:06:19;;;;;;;1999.90;999.90;;;16.00;99.90;;;;;;5053682;28;20416;-71
2021/07/02 06:08:46;;;;;;;1999.90;999.90;;;15.90;99.90;;;;;;5053753;28;20179;-71
2021/07/02 06:11:12;;;;;;;1999.90;999.90;;;15.80;99.90;;;;;;5053668;28;20199;-71
2021/07/02 06:13:37;;;;;;;1999.90;999.90;;;15.70;99.90;;;;;;5053791;28;20412;-71
2021/07/02 06:16:04;;;;;;;1999.90;999.90;;;15.60;99.90;;;;;;5053384;28;20179;-71
2021/07/02 06:18:30;;;;;;;1999.90;999.90;;;15.50;99.90;;;;;;5053580;28;20208;-71
2021/07/02 06:20:56;;;;;;;1999.90;999.90;;;15.50;99.90;;;;;;5053299;28;20497;-71
2021/07/02 06:23:22;;;;;;;1999.90;999.90;;;15.50;99.90;;;;;;5053715;28;20766;-71
2021/07/02 06:25:49;;;;;;;1999.90;999.90;;;15.50;99.90;;;;;;5053121;28;20198;-71
2021/07/02 06:28:15;;;;;;;1999.90;999.90;;;15.40;99.90;;;;;;5053399;28;20427;-71
2021/07/02 06:30:42;;;;;;;1999.90;999.90;;;15.50;99.90;;;;;;5053335;28;20461;-71
2021/07/02 06:33:07;;;;;;;1999.90;999.90;;;15.40;99.90;;;;;;5053262;28;20435;-71
2021/07/02 06:35:33;;;;;;;1999.90;999.90;;;15.50;99.90;;;;;;5052887;28;20412;-71
2021/07/02 06:37:59;;;;;;;1999.90;999.90;;;15.50;99.90;;;;;;5053115;28;20663;-71
2021/07/02 06:40:24;;;;;;;1999.90;999.90;;;15.60;99.90;;;;;;5053192;28;20171;-71
2021/07/02 06:42:50;;;;;;;1999.90;999.90;;;15.60;99.90;;;;;;5053035;28;20704;-71
2021/07/02 06:45:16;;;;;;;1999.90;999.90;;;15.80;99.90;;;;;;5051812;28;20175;-71
2021/07/02 06:47:52;;;;;;;1999.90;999.90;;;15.90;99.90;;;;;;5053034;28;20172;-71
2021/07/02 06:50:17;;;;;;;1999.90;999.90;;;16.10;99.90;;;;;;5052903;28;20419;-71
2021/07/02 06:52:43;;;;;;;1999.90;999.90;;;16.20;99.90;;;;;;5052717;28;20465;-71
2021/07/02 06:55:09;;;;;;;1999.90;999.90;;;16.30;99.90;;;;;;5052569;28;20426;-71
2021/07/02 06:57:34;;;;;;;1999.90;999.90;;;16.30;99.90;;;;;;5052804;28;20192;-71
2021/07/02 07:00:03;;;;;;;1999.90;999.90;;;16.40;99.90;;;;;;5052747;28;20410;-71
2021/07/02 07:02:29;;;;;;;1999.90;999.90;;;16.50;99.90;;;;;;5052664;28;20202;-71
2021/07/02 07:04:55;;;;;;;1999.90;999.90;;;16.60;99.90;;;;;;5052298;28;20403;-71
2021/07/02 07:07:21;;;;;;;1999.90;999.90;;;16.60;99.90;;;;;;5052695;28;20421;-71
2021/07/02 07:09:46;;;;;;;1999.90;999.90;;;16.70;99.90;;;;;;5052567;28;20175;-71
2021/07/02 07:12:12;;;;;;;1999.90;999.90;;;16.90;99.90;;;;;;5052512;28;20432;-71
2021/07/02 07:14:38;;;;;;;1999.90;999.90;;;17.00;99.90;;;;;;5052307;28;20375;-71
2021/07/02 07:17:10;;;;;;;1999.90;999.90;;;17.20;99.90;;;;;;5052469;28;20219;-71
2021/07/02 07:19:37;;;;;;;1999.90;999.90;;;17.30;99.90;;;;;;5052275;28;20540;-70
2021/07/02 07:22:02;;;;;;;1999.90;999.90;;;17.60;99.90;;;;;;5052460;28;20627;-70
2021/07/02 07:24:28;;;;;;;1999.90;999.90;;;17.70;99.90;;;;;;5052039;28;20549;-70
2021/07/02 07:26:58;;;;;;;1999.90;999.90;;;17.90;99.90;;;;;;5052261;28;20405;-71
2021/07/02 07:29:24;;;;;;;1999.90;999.90;;;18.10;99.90;;;;;;5052314;28;20183;-71
2021/07/02 07:31:50;;;;;;;1999.90;999.90;;;18.10;99.90;;;;;;5052147;28;20822;-70
2021/07/02 07:34:25;;;;;;;1999.90;999.90;;;18.30;99.90;;;;;;5052051;28;20409;-70
2021/07/02 07:36:55;;;;;;;1999.90;999.90;;;18.40;99.90;;;;;;5052406;28;20188;-70
2021/07/02 07:39:21;;;;;;;1999.90;999.90;;;18.60;99.90;;;;;;5052124;28;20465;-70
2021/07/02 07:41:47;;;;;;;1999.90;999.90;;;18.70;99.90;;;;;;5052045;28;20432;-70
2021/07/02 07:44:15;;;;;;;1999.90;999.90;;;18.80;99.90;;;;;;5051766;28;20413;-70
2021/07/02 07:46:41;;;;;;;1999.90;999.90;;;18.90;99.90;;;;;;5051956;28;20169;-70
2021/07/02 07:49:07;;;;;;;1999.90;999.90;;;19.00;99.90;;;;;;5051916;28;20424;-70
2021/07/02 07:52:25;;;;;;;1999.90;999.90;;;19.10;99.90;;;;;;5051878;28;20256;-70
2021/07/02 07:54:18;;;;;;;1999.90;999.90;;;19.30;99.90;;;;;;5044116;28;20244;-70
2021/07/02 07:56:50;;;;;;;1999.90;999.90;;;19.40;99.90;;;;;;5051506;28;20416;-71
2021/07/02 07:59:21;;;;;;;1999.90;999.90;;;19.40;99.90;;;;;;5052039;28;20242;-71
2021/07/02 08:01:47;;;;;;;1999.90;999.90;;;19.50;99.90;;;;;;5051754;28;20425;-71
2021/07/02 08:04:14;;;;;;;1999.90;999.90;;;19.50;99.90;;;;;;5051508;28;20814;-71
2021/07/02 08:06:44;;;;;;;1999.90;999.90;;;19.60;99.90;;;;;;5051823;28;20417;-71
2021/07/02 08:09:11;;;;;;;1999.90;999.90;;;19.70;99.90;;;;;;5051836;28;20420;-70
2021/07/02 08:11:38;;;;;;;1999.90;999.90;;;19.80;99.90;;;;;;5051720;28;20439;-70
2021/07/02 08:14:04;;;;;;;1999.90;999.90;;;20.00;99.90;;;;;;5051507;28;20433;-71
2021/07/02 08:16:30;;;;;;;1999.90;999.90;;;20.10;99.90;;;;;;5051767;28;20410;-71
2021/07/02 08:18:56;;;;;;;1999.90;999.90;;;20.20;99.90;;;;;;5051546;28;20556;-70
2021/07/02 08:21:21;;;;;;;1999.90;999.90;;;20.30;99.90;;;;;;5051681;28;20537;-71
2021/07/02 08:23:47;;;;;;;1999.90;999.90;;;20.40;99.90;;;;;;5051491;28;20168;-71
2021/07/02 08:26:13;;;;;;;1999.90;999.90;;;20.50;99.90;;;;;;5051524;28;20183;-71
2021/07/02 08:31:23;;;;;;;1999.90;999.90;;;20.70;99.90;;;;;;5051843;28;20205;-71
2021/07/02 08:33:48;;;;;;;1999.90;999.90;;;20.80;99.90;;;;;;5051426;28;20417;-71
2021/07/02 08:36:14;;;;;;;1999.90;999.90;;;20.80;99.90;;;;;;5046507;28;20176;-72
2021/07/02 08:38:40;;;;;;;1999.90;999.90;;;21.10;99.90;;;;;;5048919;28;20702;-71
2021/07/02 08:41:11;;;;;;;1999.90;999.90;;;21.10;99.90;;;;;;5049894;28;20172;-71
2021/07/02 08:43:37;;;;;;;1999.90;999.90;;;21.10;99.90;;;;;;5049547;28;20268;-71
2021/07/02 08:46:03;;;;;;;1999.90;999.90;;;21.10;99.90;;;;;;5049668;28;20494;-71
2021/07/02 08:48:30;;;;;;;1999.90;999.90;;;21.10;99.90;;;;;;5049530;28;20858;-71
2021/07/02 08:50:55;;;;;;;1999.90;999.90;;;21.10;99.90;;;;;;5049241;28;20416;-70
2021/07/02 08:53:22;;;;;;;1999.90;999.90;;;21.10;99.90;;;;;;5049901;28;20917;-71
2021/07/02 08:55:50;;;;;;;1999.90;999.90;;;21.00;99.90;;;;;;5049523;28;20214;-71
2021/07/02 08:58:16;;;;;;;1999.90;999.90;;;21.00;99.90;;;;;;5049059;28;20464;-71
2021/07/02 09:00:43;;;;;;;1999.90;999.90;;;21.00;99.90;;;;;;5050004;28;20436;-71
2021/07/02 09:03:32;;;;;;;1999.90;999.90;;;20.90;99.90;;;;;;5049740;28;20451;-71
2021/07/02 09:06:11;;;;;;;1999.90;999.90;;;21.00;99.90;;;;;;5048754;28;20424;-72
2021/07/02 09:08:37;;;;;;;1999.90;999.90;;;21.10;99.90;;;;;;5052638;28;20936;-71
2021/07/02 09:11:22;;;;;;;1999.90;999.90;;;21.20;99.90;;;;;;5053230;28;20420;-72
2021/07/02 09:13:47;;;;;;;1999.90;999.90;;;21.30;99.90;;;;;;5052734;28;20400;-71
2021/07/02 09:16:21;;;;;;;1999.90;999.90;;;21.30;99.90;;;;;;5050999;28;20429;-71
2021/07/02 09:18:47;;;;;;;1999.90;999.90;;;21.40;99.90;;;;;;5052993;28;20455;-72
2021/07/02 09:21:30;;;;;;;1999.90;999.90;;;21.30;99.90;;;;;;5052198;28;20432;-73
2021/07/02 09:23:58;;;;;;;1999.90;999.90;;;21.30;99.90;;;;;;5052768;28;20183;-72
2021/07/02 09:26:34;;;;;;;1999.90;999.90;;;21.40;99.90;;;;;;5050481;28;20469;-71
2021/07/02 09:29:23;;;;;;;1999.90;999.90;;;21.30;99.90;;;;;;5051909;28;20414;-74
2021/07/02 09:32:00;;;;;;;1999.90;999.90;;;21.50;99.90;;;;;;5035906;28;20470;-74
2021/07/02 09:34:54;;;;;;;1999.90;999.90;;;21.50;99.90;;;;;;5050956;28;20414;-72
2021/07/02 09:37:26;;;;;;;1999.90;999.90;;;21.70;99.90;;;;;;5052102;28;20547;-73
2021/07/02 09:39:52;;;;;;;1999.90;999.90;;;21.80;99.90;;;;;;5052497;28;20421;-72
2021/07/02 09:42:26;;;;;;;1999.90;999.90;;;21.90;99.90;;;;;;5051800;28;20430;-72
2021/07/02 09:45:07;;;;;;;1999.90;999.90;;;22.00;99.90;;;;;;5044104;28;20460;-72
2021/07/02 09:47:34;;;;;;;1999.90;999.90;;;22.00;99.90;;;;;;5052012;28;20588;-71
2021/07/02 09:50:19;;;;;;;1999.90;999.90;;;22.20;99.90;;;;;;5051727;28;20402;-71
2021/07/02 09:52:48;;;;;;;1999.90;999.90;;;22.30;99.90;;;;;;5051612;28;20926;-71
2021/07/02 09:55:15;;;;;;;1999.90;999.90;;;22.50;99.90;;;;;;5051454;28;20405;-70
2021/07/02 09:57:41;;;;;;;1999.90;999.90;;;22.70;99.90;;;;;;5051629;28;20511;-70
2021/07/02 10:00:17;;;;;;;1999.90;999.90;;;22.80;99.90;;;;;;5051978;28;20503;-70
2021/07/02 10:02:56;;;;;;;1999.90;999.90;;;22.70;99.90;;;;;;5051733;28;20950;-70
2021/07/02 10:05:23;;;;;;;1999.90;999.90;;;22.70;99.90;;;;;;5051223;28;20403;-70
2021/07/02 10:08:02;;;;;;;1999.90;999.90;;;22.70;99.90;;;;;;5050334;28;20414;-70
2021/07/02 10:10:29;;;;;;;1999.90;999.90;;;23.00;99.90;;;;;;5051617;28;20917;-70
2021/07/02 10:12:56;;;;;;;1999.90;999.90;;;23.10;99.90;;;;;;5051408;28;20516;-71
2021/07/02 10:15:23;;;;;;;1999.90;999.90;;;23.10;99.90;;;;;;5051570;28;20794;-70
2021/07/02 10:17:50;;;;;;;1999.90;999.90;;;23.40;99.90;;;;;;5051330;28;20452;-70
2021/07/02 10:20:16;;;;;;;1999.90;999.90;;;23.60;99.90;;;;;;5051404;28;20595;-71
2021/07/02 10:22:44;;;;;;;1999.90;999.90;;;23.70;99.90;;;;;;5051362;28;20791;-70
2021/07/02 10:25:12;;;;;;;1999.90;999.90;;;23.60;99.90;;;;;;5051270;28;20416;-70
2021/07/02 10:27:41;;;;;;;1999.90;999.90;;;23.20;99.90;;;;;;5051047;28;20418;-71
2021/07/02 10:30:09;;;;;;;1999.90;999.90;;;23.20;99.90;;;;;;5051710;28;20939;-70
2021/07/02 10:32:36;;;;;;;1999.90;999.90;;;23.30;99.90;;;;;;5051401;28;20430;-70
2021/07/02 10:35:02;;;;;;;1999.90;999.90;;;23.40;99.90;;;;;;5050513;28;20427;-70
2021/07/02 10:37:30;;;;;;;1999.90;999.90;;;23.40;99.90;;;;;;5051327;28;20908;-70
2021/07/02 10:39:59;;;;;;;1999.90;999.90;;;23.60;99.90;;;;;;5051394;28;20415;-70
2021/07/02 10:42:24;;;;;;;1999.90;999.90;;;23.70;99.90;;;;;;5050532;28;20497;-70
2021/07/02 10:44:53;;;;;;;1999.90;999.90;;;23.80;99.90;;;;;;5051066;28;20401;-71
2021/07/02 10:47:23;;;;;;;1999.90;999.90;;;23.60;99.90;;;;;;5051039;28;20169;-70
2021/07/02 10:49:50;;;;;;;1999.90;999.90;;;23.60;99.90;;;;;;5050719;28;20416;-69
2021/07/02 10:52:23;;;;;;;1999.90;999.90;;;23.50;99.90;;;;;;5051118;28;20457;-69
2021/07/02 10:54:53;;;;;;;1999.90;999.90;;;23.20;99.90;;;;;;5050966;28;20926;-69
2021/07/02 10:57:21;;;;;;;1999.90;999.90;;;22.90;99.90;;;;;;5050562;28;20406;-69
2021/07/02 10:59:50;;;;;;;1999.90;999.90;;;23.00;99.90;;;;;;5051083;28;20414;-69
2021/07/02 11:02:16;;;;;;;1999.90;999.90;;;23.30;99.90;;;;;;5050804;28;20486;-69
2021/07/02 11:04:45;;;;;;;1999.90;999.90;;;23.70;99.90;;;;;;5050576;28;20400;-69
2021/07/02 11:07:13;;;;;;;1999.90;999.90;;;23.70;99.90;;;;;;5050699;28;20495;-70
2021/07/02 11:09:51;;;;;;;1999.90;999.90;;;23.80;99.90;;;;;;5050946;28;20404;-69
2021/07/02 11:12:26;;;;;;;1999.90;999.90;;;23.90;99.90;;;;;;5050527;28;20427;-69
2021/07/02 11:14:55;;;;;;;1999.90;999.90;;;24.10;99.90;;;;;;5050577;28;20483;-70
2021/07/02 11:17:23;;;;;;;1999.90;999.90;;;24.30;99.90;;;;;;5050594;28;20403;-69
2021/07/02 11:20:09;;;;;;;1999.90;999.90;;;24.30;99.90;;;;;;5050470;28;20436;-69
2021/07/02 11:22:36;;;;;;;1999.90;999.90;;;24.30;99.90;;;;;;5050525;28;20792;-69
2021/07/02 11:25:18;;;;;;;1999.90;999.90;;;24.30;99.90;;;;;;5050417;28;20404;-69
2021/07/02 11:30:18;;;;;;;1999.90;999.90;;;24.10;99.90;;;;;;5050257;28;20918;-69
2021/07/02 11:32:45;;;;;;;1999.90;999.90;;;24.10;99.90;;;;;;5049945;28;20463;-69
2021/07/02 11:35:26;;;;;;;1999.90;999.90;;;24.00;99.90;;;;;;5050353;28;20174;-69
2021/07/02 11:38:07;;;;;;;1999.90;999.90;;;23.90;99.90;;;;;;5050273;28;20436;-69
2021/07/02 11:40:36;;;;;;;1999.90;999.90;;;23.90;99.90;;;;;;5050262;28;20917;-69
2021/07/02 11:43:03;;;;;;;1999.90;999.90;;;23.50;99.90;;;;;;5050398;28;20838;-69
2021/07/02 11:45:51;;;;;;;1999.90;999.90;;;23.30;99.90;;;;;;5050160;28;20401;-69
2021/07/02 11:48:22;;;;;;;1999.90;999.90;;;23.30;99.90;;;;;;5049899;28;20422;-69
2021/07/02 11:50:59;;;;;;;1999.90;999.90;;;23.40;99.90;;;;;;5050645;28;20809;-68
2021/07/02 11:53:42;;;;;;;1999.90;999.90;;;23.50;99.90;;;;;;5050454;28;20452;-70
2021/07/02 11:56:19;;;;;;;1999.90;999.90;;;23.60;99.90;;;;;;5049685;28;20402;-69
2021/07/02 11:58:49;;;;;;;1999.90;999.90;;;23.70;99.90;;;;;;5050216;28;20454;-69
2021/07/02 12:01:38;;;;;;;1999.90;999.90;;;23.90;99.90;;;;;;5050273;28;20446;-69
2021/07/02 12:04:09;;;;;;;1999.90;999.90;;;24.20;99.90;;;;;;5050216;28;20371;-69
2021/07/02 12:06:43;;;;;;;1999.90;999.90;;;23.80;99.90;;;;;;5050131;28;20932;-69